sensor_id;sensor_type;location;lat;lon;timestamp;temperature;humidity
20654;DHT22;21083;50.898;4.902;2022-07-06T00:01:25;15.90;99.90
20654;DHT22;21083;50.898;4.902;2022-07-06T00:03:53;15.90;99.90
20654;DHT22;21083;50.898;4.902;2022-07-06T00:06:19;15.90;99.90
20654;DHT22;21083;50.898;4.902;2022-07-06T00:08:48;15.80;99.90
20654;DHT22;21083;50.898;4.902;2022-07-06T00:11:15;15.90;99.90
20654;DHT22;21083;50.898;4.902;2022-07-06T00:13:42;15.90;99.90
20654;DHT22;21083;50.898;4.902;2022-07-06T00:16:09;15.90;99.90
20654;DHT22;21083;50.898;4.902;2022-07-06T00:18:36;15.80;99.90
20654;DHT22;21083;50.898;4.902;2022-07-06T00:21:03;15.70;99.90
20654;DHT22;21083;50.898;4.902;2022-07-06T00:23:30;15.60;99.90
20654;DHT22;21083;50.898;4.902;2022-07-06T00:25:58;15.60;99.90
20654;DHT22;21083;50.898;4.902;2022-07-06T00:28:26;15.70;99.90
20654;DHT22;21083;50.898;4.902;2022-07-06T00:30:53;15.60;99.90
20654;DHT22;21083;50.898;4.902;2022-07-06T00:33:20;15.60;99.90
20654;DHT22;21083;50.898;4.902;2022-07-06T00:35:47;15.60;99.90
20654;DHT22;21083;50.898;4.902;2022-07-06T00:38:15;15.60;99.90
20654;DHT22;21083;50.898;4.902;2022-07-06T00:40:42;15.60;99.90
20654;DHT22;21083;50.898;4.902;2022-07-06T00:43:10;15.60;99.90
20654;DHT22;21083;50.898;4.902;2022-07-06T00:45:37;15.60;99.90
20654;DHT22;21083;50.898;4.902;2022-07-06T00:48:04;15.50;99.90
20654;DHT22;21083;50.898;4.902;2022-07-06T00:50:32;15.50;99.90
20654;DHT22;21083;50.898;4.902;2022-07-06T00:53:01;15.40;99.90
20654;DHT22;21083;50.898;4.902;2022-07-06T00:55:30;15.40;99.90
20654;DHT22;21083;50.898;4.902;2022-07-06T00:57:57;15.40;99.90
20654;DHT22;21083;50.898;4.902;2022-07-06T01:00:27;15.30;99.90
20654;DHT22;21083;50.898;4.902;2022-07-06T01:02:55;15.30;99.90
20654;DHT22;21083;50.898;4.902;2022-07-06T01:05:22;15.20;99.90
20654;DHT22;21083;50.898;4.902;2022-07-06T01:07:51;15.20;99.90
20654;DHT22;21083;50.898;4.902;2022-07-06T01:10:21;15.20;99.90
20654;DHT22;21083;50.898;4.902;2022-07-06T01:12:48;15.10;99.90
20654;DHT22;21083;50.898;4.902;2022-07-06T01:15:16;15.00;99.90
20654;DHT22;21083;50.898;4.902;2022-07-06T01:17:45;15.00;99.90
20654;DHT22;21083;50.898;4.902;2022-07-06T01:20:15;15.00;99.90
20654;DHT22;21083;50.898;4.902;2022-07-06T01:22:42;14.90;99.90
20654;DHT22;21083;50.898;4.902;2022-07-06T01:25:10;14.90;99.90
20654;DHT22;21083;50.898;4.902;2022-07-06T01:27:37;14.80;99.90
20654;DHT22;21083;50.898;4.902;2022-07-06T01:30:06;14.80;99.90
20654;DHT22;21083;50.898;4.902;2022-07-06T01:32:33;14.70;99.90
20654;DHT22;21083;50.898;4.902;2022-07-06T01:35:01;14.70;99.90
20654;DHT22;21083;50.898;4.902;2022-07-06T01:37:29;14.60;99.90
20654;DHT22;21083;50.898;4.902;2022-07-06T01:39:58;14.60;99.90
20654;DHT22;21083;50.898;4.902;2022-07-06T01:42:25;14.50;99.90
20654;DHT22;21083;50.898;4.902;2022-07-06T01:44:52;14.50;99.90
20654;DHT22;21083;50.898;4.902;2022-07-06T01:47:20;14.40;99.90
20654;DHT22;21083;50.898;4.902;2022-07-06T01:49:47;14.30;99.90
20654;DHT22;21083;50.898;4.902;2022-07-06T01:52:14;14.30;99.90
20654;DHT22;21083;50.898;4.902;2022-07-06T01:54:42;14.40;99.90
20654;DHT22;21083;50.898;4.902;2022-07-06T01:57:09;14.30;99.90
20654;DHT22;21083;50.898;4.902;2022-07-06T01:59:36;14.40;99.90
20654;DHT22;21083;50.898;4.902;2022-07-06T02:02:03;14.30;99.90
20654;DHT22;21083;50.898;4.902;2022-07-06T02:04:30;14.30;99.90
20654;DHT22;21083;50.898;4.902;2022-07-06T02:06:57;14.30;99.90
20654;DHT22;21083;50.898;4.902;2022-07-06T02:09:24;14.30;99.90
20654;DHT22;21083;50.898;4.902;2022-07-06T02:11:52;14.30;99.90
20654;DHT22;21083;50.898;4.902;2022-07-06T02:14:19;14.30;99.90
20654;DHT22;21083;50.898;4.902;2022-07-06T02:16:46;14.30;99.90
20654;DHT22;21083;50.898;4.902;2022-07-06T02:19:13;14.30;99.90
20654;DHT22;21083;50.898;4.902;2022-07-06T02:21:40;14.30;99.90
20654;DHT22;21083;50.898;4.902;2022-07-06T02:24:07;14.30;99.90
20654;DHT22;21083;50.898;4.902;2022-07-06T02:26:34;14.20;99.90
20654;DHT22;21083;50.898;4.902;2022-07-06T02:29:02;14.20;99.90
20654;DHT22;21083;50.898;4.902;2022-07-06T02:31:29;14.10;99.90
20654;DHT22;21083;50.898;4.902;2022-07-06T02:33:55;14.10;99.90
20654;DHT22;21083;50.898;4.902;2022-07-06T02:36:22;14.10;99.90
20654;DHT22;21083;50.898;4.902;2022-07-06T02:38:49;14.10;99.90
20654;DHT22;21083;50.898;4.902;2022-07-06T02:41:16;14.10;99.90
20654;DHT22;21083;50.898;4.902;2022-07-06T02:43:43;14.10;99.90
20654;DHT22;21083;50.898;4.902;2022-07-06T02:46:11;14.20;99.90
20654;DHT22;21083;50.898;4.902;2022-07-06T02:48:38;14.20;99.90
20654;DHT22;21083;50.898;4.902;2022-07-06T02:51:05;14.20;99.90
20654;DHT22;21083;50.898;4.902;2022-07-06T02:53:32;14.10;99.90
20654;DHT22;21083;50.898;4.902;2022-07-06T02:55:59;14.10;99.90
20654;DHT22;21083;50.898;4.902;2022-07-06T02:58:26;14.10;99.90
20654;DHT22;21083;50.898;4.902;2022-07-06T03:00:53;14.10;99.90
20654;DHT22;21083;50.898;4.902;2022-07-06T03:03:21;14.00;99.90
20654;DHT22;21083;50.898;4.902;2022-07-06T03:05:48;14.00;99.90
20654;DHT22;21083;50.898;4.902;2022-07-06T03:08:14;14.10;99.90
20654;DHT22;21083;50.898;4.902;2022-07-06T03:10:42;14.10;99.90
20654;DHT22;21083;50.898;4.902;2022-07-06T03:13:09;14.00;99.90
20654;DHT22;21083;50.898;4.902;2022-07-06T03:15:36;13.80;99.90
20654;DHT22;21083;50.898;4.902;2022-07-06T03:18:02;13.80;99.90
20654;DHT22;21083;50.898;4.902;2022-07-06T03:20:31;13.70;99.90
20654;DHT22;21083;50.898;4.902;2022-07-06T03:22:58;13.70;99.90
20654;DHT22;21083;50.898;4.902;2022-07-06T03:25:24;13.80;99.90
20654;DHT22;21083;50.898;4.902;2022-07-06T03:27:51;13.80;99.90
20654;DHT22;21083;50.898;4.902;2022-07-06T03:30:18;13.80;99.90
20654;DHT22;21083;50.898;4.902;2022-07-06T03:32:45;13.80;99.90
20654;DHT22;21083;50.898;4.902;2022-07-06T03:35:12;13.80;99.90
20654;DHT22;21083;50.898;4.902;2022-07-06T03:37:41;13.80;99.90
20654;DHT22;21083;50.898;4.902;2022-07-06T03:40:08;13.90;99.90
20654;DHT22;21083;50.898;4.902;2022-07-06T03:42:35;13.90;99.90
20654;DHT22;21083;50.898;4.902;2022-07-06T03:45:03;14.00;99.90
20654;DHT22;21083;50.898;4.902;2022-07-06T03:47:30;13.90;99.90
20654;DHT22;21083;50.898;4.902;2022-07-06T03:49:57;13.80;99.90
20654;DHT22;21083;50.898;4.902;2022-07-06T03:52:23;13.90;99.90
20654;DHT22;21083;50.898;4.902;2022-07-06T03:54:52;13.90;99.90
20654;DHT22;21083;50.898;4.902;2022-07-06T03:57:19;13.90;99.90
20654;DHT22;21083;50.898;4.902;2022-07-06T03:59:47;14.00;99.90
20654;DHT22;21083;50.898;4.902;2022-07-06T04:02:14;14.00;99.90
20654;DHT22;21083;50.898;4.902;2022-07-06T04:04:41;14.00;99.90
20654;DHT22;21083;50.898;4.902;2022-07-06T04:07:07;14.00;99.90
20654;DHT22;21083;50.898;4.902;2022-07-06T04:09:34;14.10;99.90
20654;DHT22;21083;50.898;4.902;2022-07-06T04:12:03;14.00;99.90
20654;DHT22;21083;50.898;4.902;2022-07-06T04:14:30;14.10;99.90
20654;DHT22;21083;50.898;4.902;2022-07-06T04:16:57;14.10;99.90
20654;DHT22;21083;50.898;4.902;2022-07-06T04:19:24;14.10;99.90
20654;DHT22;21083;50.898;4.902;2022-07-06T04:21:51;14.10;99.90
20654;DHT22;21083;50.898;4.902;2022-07-06T04:24:18;14.10;99.90
20654;DHT22;21083;50.898;4.902;2022-07-06T04:26:44;14.10;99.90
20654;DHT22;21083;50.898;4.902;2022-07-06T04:29:12;14.10;99.90
20654;DHT22;21083;50.898;4.902;2022-07-06T04:31:39;14.10;99.90
20654;DHT22;21083;50.898;4.902;2022-07-06T04:34:08;14.10;99.90
20654;DHT22;21083;50.898;4.902;2022-07-06T04:36:35;14.10;99.90
20654;DHT22;21083;50.898;4.902;2022-07-06T04:39:02;14.10;99.90
20654;DHT22;21083;50.898;4.902;2022-07-06T04:41:29;14.10;99.90
20654;DHT22;21083;50.898;4.902;2022-07-06T04:43:56;14.10;99.90
20654;DHT22;21083;50.898;4.902;2022-07-06T04:46:24;14.10;99.90
20654;DHT22;21083;50.898;4.902;2022-07-06T04:48:51;14.20;99.90
20654;DHT22;21083;50.898;4.902;2022-07-06T04:51:18;14.20;99.90
20654;DHT22;21083;50.898;4.902;2022-07-06T04:53:45;14.20;99.90
20654;DHT22;21083;50.898;4.902;2022-07-06T04:56:12;14.30;99.90
20654;DHT22;21083;50.898;4.902;2022-07-06T04:58:39;14.30;99.90
20654;DHT22;21083;50.898;4.902;2022-07-06T05:01:06;14.40;99.90
20654;DHT22;21083;50.898;4.902;2022-07-06T05:03:34;14.40;99.90
20654;DHT22;21083;50.898;4.902;2022-07-06T05:06:05;14.50;99.90
20654;DHT22;21083;50.898;4.902;2022-07-06T05:08:33;14.60;99.90
20654;DHT22;21083;50.898;4.902;2022-07-06T05:11:00;14.70;99.90
20654;DHT22;21083;50.898;4.902;2022-07-06T05:13:27;14.70;99.90
20654;DHT22;21083;50.898;4.902;2022-07-06T05:15:53;14.80;99.90
20654;DHT22;21083;50.898;4.902;2022-07-06T05:18:20;14.80;99.90
20654;DHT22;21083;50.898;4.902;2022-07-06T05:20:48;14.90;99.90
20654;DHT22;21083;50.898;4.902;2022-07-06T05:23:15;15.00;99.90
20654;DHT22;21083;50.898;4.902;2022-07-06T05:25:42;15.00;99.90
20654;DHT22;21083;50.898;4.902;2022-07-06T05:28:09;15.10;99.90
20654;DHT22;21083;50.898;4.902;2022-07-06T05:30:36;15.10;99.90
20654;DHT22;21083;50.898;4.902;2022-07-06T05:33:03;15.20;99.90
20654;DHT22;21083;50.898;4.902;2022-07-06T05:35:30;15.20;99.90
20654;DHT22;21083;50.898;4.902;2022-07-06T05:37:58;15.20;99.90
20654;DHT22;21083;50.898;4.902;2022-07-06T05:40:25;15.30;99.90
20654;DHT22;21083;50.898;4.902;2022-07-06T05:42:52;15.30;99.90
20654;DHT22;21083;50.898;4.902;2022-07-06T05:45:19;15.40;99.90
20654;DHT22;21083;50.898;4.902;2022-07-06T05:47:47;15.40;99.90
20654;DHT22;21083;50.898;4.902;2022-07-06T05:50:32;15.40;99.90
20654;DHT22;21083;50.898;4.902;2022-07-06T05:53:03;15.40;99.90
20654;DHT22;21083;50.898;4.902;2022-07-06T05:55:30;15.30;99.90
20654;DHT22;21083;50.898;4.902;2022-07-06T05:57:57;15.40;99.90
20654;DHT22;21083;50.898;4.902;2022-07-06T06:00:25;15.30;99.90
20654;DHT22;21083;50.898;4.902;2022-07-06T06:02:53;15.30;99.90
20654;DHT22;21083;50.898;4.902;2022-07-06T06:05:20;15.40;99.90
20654;DHT22;21083;50.898;4.902;2022-07-06T06:07:48;15.40;99.90
20654;DHT22;21083;50.898;4.902;2022-07-06T06:10:18;15.40;99.90
20654;DHT22;21083;50.898;4.902;2022-07-06T06:12:47;15.50;99.90
20654;DHT22;21083;50.898;4.902;2022-07-06T06:15:14;15.60;99.90
20654;DHT22;21083;50.898;4.902;2022-07-06T06:17:41;15.80;99.90
20654;DHT22;21083;50.898;4.902;2022-07-06T06:20:10;15.90;99.90
20654;DHT22;21083;50.898;4.902;2022-07-06T06:22:48;16.00;99.90
20654;DHT22;21083;50.898;4.902;2022-07-06T06:25:18;16.30;99.90
20654;DHT22;21083;50.898;4.902;2022-07-06T06:27:46;16.40;99.90
20654;DHT22;21083;50.898;4.902;2022-07-06T06:30:13;16.60;99.90
20654;DHT22;21083;50.898;4.902;2022-07-06T06:32:40;16.70;99.90
20654;DHT22;21083;50.898;4.902;2022-07-06T06:35:08;16.80;99.90
20654;DHT22;21083;50.898;4.902;2022-07-06T06:37:35;17.00;99.90
20654;DHT22;21083;50.898;4.902;2022-07-06T06:40:02;17.10;99.90
20654;DHT22;21083;50.898;4.902;2022-07-06T06:42:31;17.30;99.90
20654;DHT22;21083;50.898;4.902;2022-07-06T06:44:58;17.50;99.90
20654;DHT22;21083;50.898;4.902;2022-07-06T06:47:25;17.60;99.90
20654;DHT22;21083;50.898;4.902;2022-07-06T06:49:52;17.60;99.90
20654;DHT22;21083;50.898;4.902;2022-07-06T06:52:19;17.70;99.90
20654;DHT22;21083;50.898;4.902;2022-07-06T06:54:46;17.70;99.90
20654;DHT22;21083;50.898;4.902;2022-07-06T06:57:13;17.80;99.90
20654;DHT22;21083;50.898;4.902;2022-07-06T06:59:41;18.00;99.90
20654;DHT22;21083;50.898;4.902;2022-07-06T07:02:08;18.00;99.90
20654;DHT22;21083;50.898;4.902;2022-07-06T07:04:35;18.10;99.90
20654;DHT22;21083;50.898;4.902;2022-07-06T07:07:02;18.10;99.90
20654;DHT22;21083;50.898;4.902;2022-07-06T07:09:29;18.20;99.90
20654;DHT22;21083;50.898;4.902;2022-07-06T07:11:56;18.50;99.90
20654;DHT22;21083;50.898;4.902;2022-07-06T07:14:23;18.50;99.90
20654;DHT22;21083;50.898;4.902;2022-07-06T07:16:51;18.50;99.90
20654;DHT22;21083;50.898;4.902;2022-07-06T07:19:18;18.50;99.90
20654;DHT22;21083;50.898;4.902;2022-07-06T07:21:45;18.60;99.90
20654;DHT22;21083;50.898;4.902;2022-07-06T07:24:12;18.50;99.90
20654;DHT22;21083;50.898;4.902;2022-07-06T07:26:39;18.70;99.90
20654;DHT22;21083;50.898;4.902;2022-07-06T07:29:06;18.90;99.90
20654;DHT22;21083;50.898;4.902;2022-07-06T07:31:33;18.90;99.90
20654;DHT22;21083;50.898;4.902;2022-07-06T07:34:03;19.00;99.90
20654;DHT22;21083;50.898;4.902;2022-07-06T07:36:30;19.00;99.90
20654;DHT22;21083;50.898;4.902;2022-07-06T07:38:57;19.00;99.90
20654;DHT22;21083;50.898;4.902;2022-07-06T07:41:24;18.90;99.90
20654;DHT22;21083;50.898;4.902;2022-07-06T07:43:51;18.70;99.90
20654;DHT22;21083;50.898;4.902;2022-07-06T07:46:18;18.80;99.90
20654;DHT22;21083;50.898;4.902;2022-07-06T07:48:44;19.20;99.90
20654;DHT22;21083;50.898;4.902;2022-07-06T07:51:13;19.40;99.90
20654;DHT22;21083;50.898;4.902;2022-07-06T07:53:40;19.50;99.90
20654;DHT22;21083;50.898;4.902;2022-07-06T07:56:07;19.60;99.90
20654;DHT22;21083;50.898;4.902;2022-07-06T07:58:34;19.60;99.90
20654;DHT22;21083;50.898;4.902;2022-07-06T08:01:01;19.70;99.90
20654;DHT22;21083;50.898;4.902;2022-07-06T08:03:29;19.80;99.90
20654;DHT22;21083;50.898;4.902;2022-07-06T08:05:57;20.00;99.90
20654;DHT22;21083;50.898;4.902;2022-07-06T08:08:25;20.20;99.90
20654;DHT22;21083;50.898;4.902;2022-07-06T08:10:52;20.30;99.90
20654;DHT22;21083;50.898;4.902;2022-07-06T08:13:19;20.30;99.90
20654;DHT22;21083;50.898;4.902;2022-07-06T08:15:46;20.40;99.90
20654;DHT22;21083;50.898;4.902;2022-07-06T08:18:14;20.30;99.90
20654;DHT22;21083;50.898;4.902;2022-07-06T08:20:41;20.50;99.90
20654;DHT22;21083;50.898;4.902;2022-07-06T08:23:07;20.50;99.90
20654;DHT22;21083;50.898;4.902;2022-07-06T08:25:36;20.50;99.90
20654;DHT22;21083;50.898;4.902;2022-07-06T08:28:03;20.50;99.90
20654;DHT22;21083;50.898;4.902;2022-07-06T08:30:30;20.60;99.90
20654;DHT22;21083;50.898;4.902;2022-07-06T08:33:00;20.80;99.90
20654;DHT22;21083;50.898;4.902;2022-07-06T08:35:28;20.90;99.90
20654;DHT22;21083;50.898;4.902;2022-07-06T08:37:55;20.70;99.90
20654;DHT22;21083;50.898;4.902;2022-07-06T08:40:22;20.80;99.90
20654;DHT22;21083;50.898;4.902;2022-07-06T08:42:53;21.00;99.90
20654;DHT22;21083;50.898;4.902;2022-07-06T08:45:21;21.00;99.90
20654;DHT22;21083;50.898;4.902;2022-07-06T08:47:49;21.00;99.90
20654;DHT22;21083;50.898;4.902;2022-07-06T08:50:16;21.00;99.90
20654;DHT22;21083;50.898;4.902;2022-07-06T08:52:43;21.10;99.90
20654;DHT22;21083;50.898;4.902;2022-07-06T08:55:11;21.30;99.90
20654;DHT22;21083;50.898;4.902;2022-07-06T08:57:38;21.40;99.90
20654;DHT22;21083;50.898;4.902;2022-07-06T09:00:08;21.60;99.90
20654;DHT22;21083;50.898;4.902;2022-07-06T09:02:36;21.60;99.90
20654;DHT22;21083;50.898;4.902;2022-07-06T09:05:04;21.70;99.90
20654;DHT22;21083;50.898;4.902;2022-07-06T09:07:31;21.50;99.90
20654;DHT22;21083;50.898;4.902;2022-07-06T09:10:00;21.70;99.90
20654;DHT22;21083;50.898;4.902;2022-07-06T09:12:27;21.80;99.90
20654;DHT22;21083;50.898;4.902;2022-07-06T09:14:55;22.00;99.90
20654;DHT22;21083;50.898;4.902;2022-07-06T09:17:25;22.00;99.90
20654;DHT22;21083;50.898;4.902;2022-07-06T09:19:52;22.20;99.90
20654;DHT22;21083;50.898;4.902;2022-07-06T09:22:26;22.10;99.90
20654;DHT22;21083;50.898;4.902;2022-07-06T09:24:53;22.10;99.90
20654;DHT22;21083;50.898;4.902;2022-07-06T09:27:22;22.20;99.90
20654;DHT22;21083;50.898;4.902;2022-07-06T09:29:49;22.20;99.90
20654;DHT22;21083;50.898;4.902;2022-07-06T09:32:20;22.20;99.90
20654;DHT22;21083;50.898;4.902;2022-07-06T09:34:48;22.10;99.90
20654;DHT22;21083;50.898;4.902;2022-07-06T09:37:15;22.20;99.90
20654;DHT22;21083;50.898;4.902;2022-07-06T09:39:43;22.20;99.90
20654;DHT22;21083;50.898;4.902;2022-07-06T09:42:11;22.20;99.90
20654;DHT22;21083;50.898;4.902;2022-07-06T09:44:39;22.10;99.90
20654;DHT22;21083;50.898;4.902;2022-07-06T09:47:07;22.00;99.90
20654;DHT22;21083;50.898;4.902;2022-07-06T09:49:35;22.00;99.90
20654;DHT22;21083;50.898;4.902;2022-07-06T09:52:05;22.10;99.90
20654;DHT22;21083;50.898;4.902;2022-07-06T09:54:33;22.10;99.90
20654;DHT22;21083;50.898;4.902;2022-07-06T09:57:01;22.10;99.90
20654;DHT22;21083;50.898;4.902;2022-07-06T09:59:29;22.20;99.90
20654;DHT22;21083;50.898;4.902;2022-07-06T10:01:57;22.30;99.90
20654;DHT22;21083;50.898;4.902;2022-07-06T10:04:26;22.40;99.90
20654;DHT22;21083;50.898;4.902;2022-07-06T10:06:54;22.50;99.90
20654;DHT22;21083;50.898;4.902;2022-07-06T10:09:24;22.20;99.90
20654;DHT22;21083;50.898;4.902;2022-07-06T10:11:53;22.00;99.90
20654;DHT22;21083;50.898;4.902;2022-07-06T10:14:21;22.10;99.90
20654;DHT22;21083;50.898;4.902;2022-07-06T10:16:49;22.20;99.90
20654;DHT22;21083;50.898;4.902;2022-07-06T10:19:17;22.30;99.90
20654;DHT22;21083;50.898;4.902;2022-07-06T10:21:45;22.50;99.90
20654;DHT22;21083;50.898;4.902;2022-07-06T10:24:13;22.50;99.90
20654;DHT22;21083;50.898;4.902;2022-07-06T10:26:42;22.60;99.90
20654;DHT22;21083;50.898;4.902;2022-07-06T10:29:09;22.60;99.90
20654;DHT22;21083;50.898;4.902;2022-07-06T10:31:39;22.70;99.90
20654;DHT22;21083;50.898;4.902;2022-07-06T10:34:09;23.00;99.90
20654;DHT22;21083;50.898;4.902;2022-07-06T10:36:38;23.10;99.90
20654;DHT22;21083;50.898;4.902;2022-07-06T10:39:05;23.40;99.90
20654;DHT22;21083;50.898;4.902;2022-07-06T10:41:48;23.50;99.90
20654;DHT22;21083;50.898;4.902;2022-07-06T10:44:16;23.40;99.90
20654;DHT22;21083;50.898;4.902;2022-07-06T10:46:54;23.00;99.90
20654;DHT22;21083;50.898;4.902;2022-07-06T10:49:21;22.70;99.90
20654;DHT22;21083;50.898;4.902;2022-07-06T10:51:49;22.70;99.90
20654;DHT22;21083;50.898;4.902;2022-07-06T10:54:17;22.80;99.90
20654;DHT22;21083;50.898;4.902;2022-07-06T10:56:48;22.70;99.90
20654;DHT22;21083;50.898;4.902;2022-07-06T10:59:17;22.80;99.90
20654;DHT22;21083;50.898;4.902;2022-07-06T11:02:12;22.70;99.90
20654;DHT22;21083;50.898;4.902;2022-07-06T11:04:40;22.50;99.90
20654;DHT22;21083;50.898;4.902;2022-07-06T11:07:09;22.60;99.90
20654;DHT22;21083;50.898;4.902;2022-07-06T11:09:37;22.70;99.90
20654;DHT22;21083;50.898;4.902;2022-07-06T11:12:18;22.60;99.90
20654;DHT22;21083;50.898;4.902;2022-07-06T11:14:47;22.80;99.90
20654;DHT22;21083;50.898;4.902;2022-07-06T11:17:14;22.80;99.90
20654;DHT22;21083;50.898;4.902;2022-07-06T11:19:48;22.80;99.90
20654;DHT22;21083;50.898;4.902;2022-07-06T11:22:17;22.90;99.90
20654;DHT22;21083;50.898;4.902;2022-07-06T11:24:44;22.90;99.90
20654;DHT22;21083;50.898;4.902;2022-07-06T11:27:12;22.80;99.90
20654;DHT22;21083;50.898;4.902;2022-07-06T11:29:41;22.70;99.90
20654;DHT22;21083;50.898;4.902;2022-07-06T11:32:09;22.80;99.90
20654;DHT22;21083;50.898;4.902;2022-07-06T11:34:38;22.80;99.90
20654;DHT22;21083;50.898;4.902;2022-07-06T11:37:06;22.90;99.90
20654;DHT22;21083;50.898;4.902;2022-07-06T11:39:35;23.20;99.90
20654;DHT22;21083;50.898;4.902;2022-07-06T11:42:03;23.50;99.90
20654;DHT22;21083;50.898;4.902;2022-07-06T11:44:31;23.90;99.90
20654;DHT22;21083;50.898;4.902;2022-07-06T11:46:59;24.10;99.90
20654;DHT22;21083;50.898;4.902;2022-07-06T11:49:27;24.50;99.90
20654;DHT22;21083;50.898;4.902;2022-07-06T11:51:55;24.90;99.90
20654;DHT22;21083;50.898;4.902;2022-07-06T11:54:23;25.10;99.90
20654;DHT22;21083;50.898;4.902;2022-07-06T11:56:51;25.70;99.90
20654;DHT22;21083;50.898;4.902;2022-07-06T11:59:21;26.00;99.90
20654;DHT22;21083;50.898;4.902;2022-07-06T12:01:48;26.10;99.90
20654;DHT22;21083;50.898;4.902;2022-07-06T12:04:17;25.70;99.90
20654;DHT22;21083;50.898;4.902;2022-07-06T12:06:44;25.60;99.90
20654;DHT22;21083;50.898;4.902;2022-07-06T12:09:11;25.40;99.90
20654;DHT22;21083;50.898;4.902;2022-07-06T12:11:40;25.10;99.90
20654;DHT22;21083;50.898;4.902;2022-07-06T12:14:13;25.20;99.90
20654;DHT22;21083;50.898;4.902;2022-07-06T12:16:40;25.30;99.90
20654;DHT22;21083;50.898;4.902;2022-07-06T12:19:08;25.60;99.90
20654;DHT22;21083;50.898;4.902;2022-07-06T12:21:42;25.40;99.90
20654;DHT22;21083;50.898;4.902;2022-07-06T12:24:10;25.30;99.90
20654;DHT22;21083;50.898;4.902;2022-07-06T12:26:43;25.10;99.90
20654;DHT22;21083;50.898;4.902;2022-07-06T12:29:12;25.20;99.90
20654;DHT22;21083;50.898;4.902;2022-07-06T12:31:40;25.00;99.90
20654;DHT22;21083;50.898;4.902;2022-07-06T12:34:16;25.20;99.90
20654;DHT22;21083;50.898;4.902;2022-07-06T12:36:45;25.20;99.90
20654;DHT22;21083;50.898;4.902;2022-07-06T12:39:14;25.10;99.90
20654;DHT22;21083;50.898;4.902;2022-07-06T12:41:46;25.00;99.90
20654;DHT22;21083;50.898;4.902;2022-07-06T12:44:14;24.80;99.90
20654;DHT22;21083;50.898;4.902;2022-07-06T12:46:42;24.70;99.90
20654;DHT22;21083;50.898;4.902;2022-07-06T12:49:17;24.70;99.90
20654;DHT22;21083;50.898;4.902;2022-07-06T12:51:57;24.50;99.90
20654;DHT22;21083;50.898;4.902;2022-07-06T12:54:26;24.70;99.90
20654;DHT22;21083;50.898;4.902;2022-07-06T12:57:14;24.70;99.90
20654;DHT22;21083;50.898;4.902;2022-07-06T12:59:43;25.00;99.90
20654;DHT22;21083;50.898;4.902;2022-07-06T13:02:19;24.80;99.90
20654;DHT22;21083;50.898;4.902;2022-07-06T13:04:58;24.90;99.90
20654;DHT22;21083;50.898;4.902;2022-07-06T13:07:28;25.40;99.90
20654;DHT22;21083;50.898;4.902;2022-07-06T13:09:57;26.00;99.90
20654;DHT22;21083;50.898;4.902;2022-07-06T13:12:25;26.50;99.90
20654;DHT22;21083;50.898;4.902;2022-07-06T13:14:52;26.80;99.90
20654;DHT22;21083;50.898;4.902;2022-07-06T13:17:20;26.40;99.90
20654;DHT22;21083;50.898;4.902;2022-07-06T13:19:47;26.20;99.90
20654;DHT22;21083;50.898;4.902;2022-07-06T13:22:14;26.30;99.90
20654;DHT22;21083;50.898;4.902;2022-07-06T13:24:43;26.20;99.90
20654;DHT22;21083;50.898;4.902;2022-07-06T13:27:10;25.90;99.90
20654;DHT22;21083;50.898;4.902;2022-07-06T13:29:37;25.80;99.90
20654;DHT22;21083;50.898;4.902;2022-07-06T13:32:05;25.60;99.90
20654;DHT22;21083;50.898;4.902;2022-07-06T13:34:32;25.60;99.90
20654;DHT22;21083;50.898;4.902;2022-07-06T13:37:01;25.60;99.90
20654;DHT22;21083;50.898;4.902;2022-07-06T13:39:28;26.20;99.90
20654;DHT22;21083;50.898;4.902;2022-07-06T13:41:56;26.40;99.90
20654;DHT22;21083;50.898;4.902;2022-07-06T13:44:23;26.40;99.90
20654;DHT22;21083;50.898;4.902;2022-07-06T13:46:50;26.60;99.90
20654;DHT22;21083;50.898;4.902;2022-07-06T13:49:17;26.90;99.90
20654;DHT22;21083;50.898;4.902;2022-07-06T13:51:44;27.20;99.90
20654;DHT22;21083;50.898;4.902;2022-07-06T13:54:12;27.60;99.90
20654;DHT22;21083;50.898;4.902;2022-07-06T13:56:39;28.10;99.90
20654;DHT22;21083;50.898;4.902;2022-07-06T13:59:08;28.40;99.90
20654;DHT22;21083;50.898;4.902;2022-07-06T14:01:35;28.70;99.90
20654;DHT22;21083;50.898;4.902;2022-07-06T14:04:02;28.90;99.90
20654;DHT22;21083;50.898;4.902;2022-07-06T14:06:29;28.90;99.90
20654;DHT22;21083;50.898;4.902;2022-07-06T14:08:56;28.20;99.90
20654;DHT22;21083;50.898;4.902;2022-07-06T14:11:23;28.40;99.90
20654;DHT22;21083;50.898;4.902;2022-07-06T14:13:50;28.50;99.90
20654;DHT22;21083;50.898;4.902;2022-07-06T14:16:19;28.50;99.90
20654;DHT22;21083;50.898;4.902;2022-07-06T14:18:45;28.90;99.90
20654;DHT22;21083;50.898;4.902;2022-07-06T14:21:12;28.70;99.90
20654;DHT22;21083;50.898;4.902;2022-07-06T14:23:40;28.60;99.90
20654;DHT22;21083;50.898;4.902;2022-07-06T14:26:07;28.10;99.90
20654;DHT22;21083;50.898;4.902;2022-07-06T14:28:35;27.60;99.90
20654;DHT22;21083;50.898;4.902;2022-07-06T14:31:02;27.30;99.90
20654;DHT22;21083;50.898;4.902;2022-07-06T14:33:30;27.10;99.90
20654;DHT22;21083;50.898;4.902;2022-07-06T14:35:57;26.70;99.90
20654;DHT22;21083;50.898;4.902;2022-07-06T14:38:24;26.60;99.90
20654;DHT22;21083;50.898;4.902;2022-07-06T14:40:55;26.70;99.90
20654;DHT22;21083;50.898;4.902;2022-07-06T14:43:22;26.70;99.90
20654;DHT22;21083;50.898;4.902;2022-07-06T14:45:50;26.70;99.90
20654;DHT22;21083;50.898;4.902;2022-07-06T14:48:19;26.70;99.90
20654;DHT22;21083;50.898;4.902;2022-07-06T14:50:47;26.40;99.90
20654;DHT22;21083;50.898;4.902;2022-07-06T14:53:14;26.60;99.90
20654;DHT22;21083;50.898;4.902;2022-07-06T14:55:41;27.00;99.90
20654;DHT22;21083;50.898;4.902;2022-07-06T14:58:08;27.10;99.90
20654;DHT22;21083;50.898;4.902;2022-07-06T15:00:35;26.90;99.90
20654;DHT22;21083;50.898;4.902;2022-07-06T15:03:02;26.50;99.90
20654;DHT22;21083;50.898;4.902;2022-07-06T15:05:29;26.20;99.90
20654;DHT22;21083;50.898;4.902;2022-07-06T15:07:57;26.30;99.90
20654;DHT22;21083;50.898;4.902;2022-07-06T15:10:26;26.40;99.90
20654;DHT22;21083;50.898;4.902;2022-07-06T15:12:53;26.30;99.90
20654;DHT22;21083;50.898;4.902;2022-07-06T15:15:20;26.50;99.90
20654;DHT22;21083;50.898;4.902;2022-07-06T15:17:48;26.30;99.90
20654;DHT22;21083;50.898;4.902;2022-07-06T15:20:15;26.00;99.90
20654;DHT22;21083;50.898;4.902;2022-07-06T15:22:43;26.10;99.90
20654;DHT22;21083;50.898;4.902;2022-07-06T15:25:11;26.50;99.90
20654;DHT22;21083;50.898;4.902;2022-07-06T15:27:38;26.90;99.90
20654;DHT22;21083;50.898;4.902;2022-07-06T15:30:06;27.20;99.90
20654;DHT22;21083;50.898;4.902;2022-07-06T15:32:33;26.90;99.90
20654;DHT22;21083;50.898;4.902;2022-07-06T15:35:00;26.30;99.90